sensor_id;sensor_type;location;lat;lon;timestamp;temperature;humidity
67194;DHT22;54121;53.508;49.422;2023-03-01T01:00:39;-0.30;79.90
67194;DHT22;54121;53.508;49.422;2023-03-01T04:31:22;2.80;68.90
67194;DHT22;54121;53.508;49.422;2023-03-01T04:33:54;3.00;67.00
67194;DHT22;54121;53.508;49.422;2023-03-01T04:36:27;3.30;65.80
67194;DHT22;54121;53.508;49.422;2023-03-01T04:38:54;3.60;65.80
67194;DHT22;54121;53.508;49.422;2023-03-01T04:41:24;3.90;63.50
67194;DHT22;54121;53.508;49.422;2023-03-01T04:43:51;3.90;63.50
67194;DHT22;54121;53.508;49.422;2023-03-01T04:46:19;4.10;61.80
67194;DHT22;54121;53.508;49.422;2023-03-01T04:48:47;4.20;61.30
67194;DHT22;54121;53.508;49.422;2023-03-01T04:51:14;4.40;60.30
67194;DHT22;54121;53.508;49.422;2023-03-01T04:53:42;4.50;58.70
67194;DHT22;54121;53.508;49.422;2023-03-01T04:56:11;4.70;59.40
67194;DHT22;54121;53.508;49.422;2023-03-01T04:58:41;4.80;57.70
67194;DHT22;54121;53.508;49.422;2023-03-01T05:01:10;5.00;57.20
67194;DHT22;54121;53.508;49.422;2023-03-01T05:03:51;5.20;55.90
67194;DHT22;54121;53.508;49.422;2023-03-01T05:06:20;5.30;54.50
67194;DHT22;54121;53.508;49.422;2023-03-01T05:08:46;5.40;54.50
67194;DHT22;54121;53.508;49.422;2023-03-01T05:11:13;5.20;54.30
67194;DHT22;54121;53.508;49.422;2023-03-01T05:13:41;5.20;54.60
67194;DHT22;54121;53.508;49.422;2023-03-01T05:16:08;5.40;53.40
67194;DHT22;54121;53.508;49.422;2023-03-01T05:18:37;5.30;53.40
67194;DHT22;54121;53.508;49.422;2023-03-01T05:21:14;5.40;52.80
67194;DHT22;54121;53.508;49.422;2023-03-01T05:23:44;5.60;52.10
67194;DHT22;54121;53.508;49.422;2023-03-01T05:26:11;5.70;51.50
67194;DHT22;54121;53.508;49.422;2023-03-01T05:28:38;5.70;51.60
67194;DHT22;54121;53.508;49.422;2023-03-01T05:31:06;5.90;51.20
67194;DHT22;54121;53.508;49.422;2023-03-01T05:33:39;6.00;50.00
67194;DHT22;54121;53.508;49.422;2023-03-01T05:36:09;6.10;49.90
67194;DHT22;54121;53.508;49.422;2023-03-01T05:38:36;6.20;49.70
67194;DHT22;54121;53.508;49.422;2023-03-01T05:41:03;6.20;49.10
67194;DHT22;54121;53.508;49.422;2023-03-01T05:43:31;6.60;48.40
67194;DHT22;54121;53.508;49.422;2023-03-01T05:46:00;6.60;47.60
67194;DHT22;54121;53.508;49.422;2023-03-01T05:48:26;6.80;47.10
67194;DHT22;54121;53.508;49.422;2023-03-01T05:50:53;6.80;46.60
67194;DHT22;54121;53.508;49.422;2023-03-01T05:53:20;6.90;46.40
67194;DHT22;54121;53.508;49.422;2023-03-01T05:55:49;7.00;46.50
67194;DHT22;54121;53.508;49.422;2023-03-01T05:58:17;7.00;45.90
67194;DHT22;54121;53.508;49.422;2023-03-01T06:00:45;7.10;44.90
67194;DHT22;54121;53.508;49.422;2023-03-01T06:03:14;7.50;44.30
67194;DHT22;54121;53.508;49.422;2023-03-01T06:05:41;7.60;43.80
67194;DHT22;54121;53.508;49.422;2023-03-01T06:08:10;7.60;43.60
67194;DHT22;54121;53.508;49.422;2023-03-01T06:10:37;7.70;43.50
67194;DHT22;54121;53.508;49.422;2023-03-01T06:13:04;8.10;42.30
67194;DHT22;54121;53.508;49.422;2023-03-01T06:15:31;8.50;41.30
67194;DHT22;54121;53.508;49.422;2023-03-01T06:17:57;8.70;40.50
67194;DHT22;54121;53.508;49.422;2023-03-01T06:20:25;8.80;40.10
67194;DHT22;54121;53.508;49.422;2023-03-01T06:22:52;8.90;40.00
67194;DHT22;54121;53.508;49.422;2023-03-01T06:25:22;8.70;40.50
67194;DHT22;54121;53.508;49.422;2023-03-01T06:27:49;8.80;39.50
67194;DHT22;54121;53.508;49.422;2023-03-01T06:30:19;8.60;39.50
67194;DHT22;54121;53.508;49.422;2023-03-01T06:32:49;8.90;39.60
67194;DHT22;54121;53.508;49.422;2023-03-01T06:35:17;9.50;37.90
67194;DHT22;54121;53.508;49.422;2023-03-01T06:37:46;9.60;37.00
67194;DHT22;54121;53.508;49.422;2023-03-01T06:40:13;9.90;36.80
67194;DHT22;54121;53.508;49.422;2023-03-01T06:42:42;10.00;36.00
67194;DHT22;54121;53.508;49.422;2023-03-01T06:45:10;10.10;35.20
67194;DHT22;54121;53.508;49.422;2023-03-01T06:47:36;9.80;35.90
67194;DHT22;54121;53.508;49.422;2023-03-01T06:50:03;9.90;35.40
67194;DHT22;54121;53.508;49.422;2023-03-01T06:52:31;9.90;36.00
67194;DHT22;54121;53.508;49.422;2023-03-01T06:54:57;9.60;35.80
67194;DHT22;54121;53.508;49.422;2023-03-01T06:57:24;9.40;35.20
67194;DHT22;54121;53.508;49.422;2023-03-01T06:59:51;9.10;36.10
67194;DHT22;54121;53.508;49.422;2023-03-01T07:02:17;8.80;36.60
67194;DHT22;54121;53.508;49.422;2023-03-01T07:04:44;8.80;39.20
67194;DHT22;54121;53.508;49.422;2023-03-01T07:07:11;8.70;40.70
67194;DHT22;54121;53.508;49.422;2023-03-01T07:09:37;8.50;41.10
67194;DHT22;54121;53.508;49.422;2023-03-01T07:12:04;9.00;38.60
67194;DHT22;54121;53.508;49.422;2023-03-01T07:14:31;9.20;36.90
67194;DHT22;54121;53.508;49.422;2023-03-01T07:16:58;9.70;36.40
67194;DHT22;54121;53.508;49.422;2023-03-01T07:19:25;9.70;35.90
67194;DHT22;54121;53.508;49.422;2023-03-01T07:21:52;9.80;35.80
67194;DHT22;54121;53.508;49.422;2023-03-01T07:24:22;9.70;36.00
67194;DHT22;54121;53.508;49.422;2023-03-01T07:26:50;10.40;33.70
67194;DHT22;54121;53.508;49.422;2023-03-01T07:29:18;10.40;32.80
67194;DHT22;54121;53.508;49.422;2023-03-01T07:31:46;10.30;32.40
67194;DHT22;54121;53.508;49.422;2023-03-01T07:34:12;10.30;31.90
67194;DHT22;54121;53.508;49.422;2023-03-01T07:36:39;10.50;31.60
67194;DHT22;54121;53.508;49.422;2023-03-01T07:39:10;10.60;30.40
67194;DHT22;54121;53.508;49.422;2023-03-01T07:41:37;10.90;30.20
67194;DHT22;54121;53.508;49.422;2023-03-01T07:44:04;11.20;29.70
67194;DHT22;54121;53.508;49.422;2023-03-01T07:46:31;11.20;29.30
67194;DHT22;54121;53.508;49.422;2023-03-01T07:48:58;11.30;29.00
67194;DHT22;54121;53.508;49.422;2023-03-01T07:51:25;11.50;28.90
67194;DHT22;54121;53.508;49.422;2023-03-01T07:53:51;11.60;28.80
67194;DHT22;54121;53.508;49.422;2023-03-01T07:56:18;11.60;28.90
67194;DHT22;54121;53.508;49.422;2023-03-01T07:58:45;11.70;28.10
67194;DHT22;54121;53.508;49.422;2023-03-01T08:01:15;11.60;28.90
67194;DHT22;54121;53.508;49.422;2023-03-01T08:03:42;11.90;28.20
67194;DHT22;54121;53.508;49.422;2023-03-01T08:06:11;11.60;28.40
67194;DHT22;54121;53.508;49.422;2023-03-01T08:08:38;11.80;27.80
67194;DHT22;54121;53.508;49.422;2023-03-01T08:11:07;11.90;27.20
67194;DHT22;54121;53.508;49.422;2023-03-01T08:13:34;12.10;26.60
67194;DHT22;54121;53.508;49.422;2023-03-01T08:16:06;11.50;27.70
67194;DHT22;54121;53.508;49.422;2023-03-01T08:18:33;11.40;27.30
67194;DHT22;54121;53.508;49.422;2023-03-01T08:21:14;11.10;26.80
67194;DHT22;54121;53.508;49.422;2023-03-01T08:23:41;10.80;27.30
67194;DHT22;54121;53.508;49.422;2023-03-01T08:26:14;10.80;28.00
67194;DHT22;54121;53.508;49.422;2023-03-01T08:28:41;10.90;28.50
67194;DHT22;54121;53.508;49.422;2023-03-01T08:31:16;11.10;28.10
67194;DHT22;54121;53.508;49.422;2023-03-01T08:33:43;10.90;27.80
67194;DHT22;54121;53.508;49.422;2023-03-01T08:36:10;10.80;28.50
67194;DHT22;54121;53.508;49.422;2023-03-01T08:38:36;10.90;28.30
67194;DHT22;54121;53.508;49.422;2023-03-01T08:41:03;11.00;27.50
67194;DHT22;54121;53.508;49.422;2023-03-01T08:43:30;10.90;26.90
67194;DHT22;54121;53.508;49.422;2023-03-01T08:45:56;10.90;27.80
67194;DHT22;54121;53.508;49.422;2023-03-01T08:48:23;10.90;27.80
67194;DHT22;54121;53.508;49.422;2023-03-01T08:50:50;10.90;27.90
67194;DHT22;54121;53.508;49.422;2023-03-01T08:53:19;11.00;27.00
67194;DHT22;54121;53.508;49.422;2023-03-01T08:55:46;11.40;26.30
67194;DHT22;54121;53.508;49.422;2023-03-01T08:58:13;11.50;26.40
67194;DHT22;54121;53.508;49.422;2023-03-01T09:00:40;11.50;26.10
67194;DHT22;54121;53.508;49.422;2023-03-01T09:03:07;11.40;26.10
67194;DHT22;54121;53.508;49.422;2023-03-01T09:05:34;11.50;26.40
67194;DHT22;54121;53.508;49.422;2023-03-01T09:08:02;11.90;26.00
67194;DHT22;54121;53.508;49.422;2023-03-01T09:10:29;12.40;25.30
67194;DHT22;54121;53.508;49.422;2023-03-01T09:12:55;12.70;24.90
67194;DHT22;54121;53.508;49.422;2023-03-01T09:15:22;12.80;25.00
67194;DHT22;54121;53.508;49.422;2023-03-01T09:17:48;13.30;24.40
67194;DHT22;54121;53.508;49.422;2023-03-01T09:20:15;13.40;23.70
67194;DHT22;54121;53.508;49.422;2023-03-01T09:22:42;13.30;24.40
67194;DHT22;54121;53.508;49.422;2023-03-01T09:25:10;13.80;23.10
67194;DHT22;54121;53.508;49.422;2023-03-01T09:27:36;14.00;22.90
67194;DHT22;54121;53.508;49.422;2023-03-01T09:30:03;13.70;22.70
67194;DHT22;54121;53.508;49.422;2023-03-01T09:32:31;13.30;23.90
67194;DHT22;54121;53.508;49.422;2023-03-01T09:34:57;14.20;22.30
67194;DHT22;54121;53.508;49.422;2023-03-01T09:37:33;13.90;22.70
67194;DHT22;54121;53.508;49.422;2023-03-01T09:40:00;13.70;22.70
67194;DHT22;54121;53.508;49.422;2023-03-01T09:42:28;13.90;21.70
67194;DHT22;54121;53.508;49.422;2023-03-01T09:45:22;14.20;21.10
67194;DHT22;54121;53.508;49.422;2023-03-01T09:47:51;14.20;20.90
67194;DHT22;54121;53.508;49.422;2023-03-01T09:50:20;13.10;21.90
67194;DHT22;54121;53.508;49.422;2023-03-01T09:53:04;13.10;21.50
67194;DHT22;54121;53.508;49.422;2023-03-01T09:55:54;13.00;22.60
67194;DHT22;54121;53.508;49.422;2023-03-01T10:07:17;13.20;20.70
67194;DHT22;54121;53.508;49.422;2023-03-01T10:09:47;13.30;20.90
67194;DHT22;54121;53.508;49.422;2023-03-01T10:12:18;12.40;22.80
67194;DHT22;54121;53.508;49.422;2023-03-01T10:20:22;14.90;21.40
67194;DHT22;54121;53.508;49.422;2023-03-01T10:22:50;15.00;21.10
67194;DHT22;54121;53.508;49.422;2023-03-01T10:28:26;15.00;22.00
67194;DHT22;54121;53.508;49.422;2023-03-01T10:30:57;14.80;22.50
67194;DHT22;54121;53.508;49.422;2023-03-01T10:33:29;14.60;22.20
67194;DHT22;54121;53.508;49.422;2023-03-01T10:35:58;15.10;22.00
67194;DHT22;54121;53.508;49.422;2023-03-01T10:38:25;13.60;24.20
67194;DHT22;54121;53.508;49.422;2023-03-01T10:43:58;12.80;24.40
67194;DHT22;54121;53.508;49.422;2023-03-01T10:46:32;12.30;24.10
67194;DHT22;54121;53.508;49.422;2023-03-01T10:49:16;12.70;23.40
67194;DHT22;54121;53.508;49.422;2023-03-01T10:51:45;12.60;22.40
67194;DHT22;54121;53.508;49.422;2023-03-01T10:56:51;11.50;23.90
67194;DHT22;54121;53.508;49.422;2023-03-01T10:59:29;11.20;24.00
67194;DHT22;54121;53.508;49.422;2023-03-01T11:02:23;10.60;23.90
67194;DHT22;54121;53.508;49.422;2023-03-01T11:07:49;11.90;23.00
67194;DHT22;54121;53.508;49.422;2023-03-01T11:10:27;11.50;23.50
67194;DHT22;54121;53.508;49.422;2023-03-01T11:13:07;11.50;23.40
67194;DHT22;54121;53.508;49.422;2023-03-01T11:15:34;12.40;23.10
67194;DHT22;54121;53.508;49.422;2023-03-01T11:18:01;12.00;22.80
67194;DHT22;54121;53.508;49.422;2023-03-01T11:20:46;13.50;23.40
67194;DHT22;54121;53.508;49.422;2023-03-01T11:23:15;12.90;21.80
67194;DHT22;54121;53.508;49.422;2023-03-01T11:25:47;12.20;22.50
67194;DHT22;54121;53.508;49.422;2023-03-01T11:28:17;11.70;23.30
67194;DHT22;54121;53.508;49.422;2023-03-01T11:30:54;12.30;22.30
67194;DHT22;54121;53.508;49.422;2023-03-01T11:36:24;11.90;23.50
67194;DHT22;54121;53.508;49.422;2023-03-01T11:38:55;13.10;21.80
67194;DHT22;54121;53.508;49.422;2023-03-01T11:41:33;12.50;22.10
67194;DHT22;54121;53.508;49.422;2023-03-01T11:44:20;12.20;21.90
67194;DHT22;54121;53.508;49.422;2023-03-01T11:47:21;12.80;21.20
67194;DHT22;54121;53.508;49.422;2023-03-01T11:50:06;12.40;21.80
67194;DHT22;54121;53.508;49.422;2023-03-01T12:12:28;13.20;20.30
67194;DHT22;54121;53.508;49.422;2023-03-01T12:25:41;14.10;21.90
67194;DHT22;54121;53.508;49.422;2023-03-01T12:43:07;17.20;18.20
67194;DHT22;54121;53.508;49.422;2023-03-01T12:45:55;17.30;18.20
67194;DHT22;54121;53.508;49.422;2023-03-01T12:48:51;17.30;17.80
67194;DHT22;54121;53.508;49.422;2023-03-01T12:51:24;17.70;16.90
67194;DHT22;54121;53.508;49.422;2023-03-01T12:53:55;16.90;17.40
67194;DHT22;54121;53.508;49.422;2023-03-01T12:56:27;18.20;16.60
67194;DHT22;54121;53.508;49.422;2023-03-01T12:59:08;18.00;16.10
67194;DHT22;54121;53.508;49.422;2023-03-01T13:07:50;17.70;15.50
67194;DHT22;54121;53.508;49.422;2023-03-01T13:13:11;16.90;16.50
67194;DHT22;54121;53.508;49.422;2023-03-01T13:15:39;17.40;15.50
67194;DHT22;54121;53.508;49.422;2023-03-01T13:26:16;16.00;15.80
67194;DHT22;54121;53.508;49.422;2023-03-01T13:33:44;13.70;17.80
67194;DHT22;54121;53.508;49.422;2023-03-01T13:39:38;12.90;18.20
67194;DHT22;54121;53.508;49.422;2023-03-01T13:41:51;12.10;19.10
67194;DHT22;54121;53.508;49.422;2023-03-01T13:44:26;11.60;20.00
67194;DHT22;54121;53.508;49.422;2023-03-01T13:50:15;9.90;21.60
67194;DHT22;54121;53.508;49.422;2023-03-01T13:52:45;9.40;22.30
67194;DHT22;54121;53.508;49.422;2023-03-01T13:55:22;9.20;22.70
67194;DHT22;54121;53.508;49.422;2023-03-01T13:57:53;8.30;23.60
67194;DHT22;54121;53.508;49.422;2023-03-01T14:00:33;8.10;24.20
67194;DHT22;54121;53.508;49.422;2023-03-01T14:03:08;7.50;24.60
67194;DHT22;54121;53.508;49.422;2023-03-01T14:05:35;7.30;24.90
67194;DHT22;54121;53.508;49.422;2023-03-01T14:08:17;6.90;25.70
67194;DHT22;54121;53.508;49.422;2023-03-01T14:11:20;6.40;26.20
67194;DHT22;54121;53.508;49.422;2023-03-01T14:19:26;6.00;27.30
67194;DHT22;54121;53.508;49.422;2023-03-01T14:22:22;5.90;27.50
67194;DHT22;54121;53.508;49.422;2023-03-01T14:24:55;5.50;27.90
67194;DHT22;54121;53.508;49.422;2023-03-01T14:27:25;5.50;28.50
67194;DHT22;54121;53.508;49.422;2023-03-01T14:29:58;5.20;29.10
67194;DHT22;54121;53.508;49.422;2023-03-01T14:32:28;5.10;29.70
67194;DHT22;54121;53.508;49.422;2023-03-01T14:34:56;5.00;29.90
67194;DHT22;54121;53.508;49.422;2023-03-01T14:39:57;3.90;31.80
67194;DHT22;54121;53.508;49.422;2023-03-01T14:42:26;3.40;33.00
67194;DHT22;54121;53.508;49.422;2023-03-01T14:44:55;2.90;34.20
67194;DHT22;54121;53.508;49.422;2023-03-01T14:47:32;2.60;35.00
67194;DHT22;54121;53.508;49.422;2023-03-01T14:50:09;2.10;36.90
67194;DHT22;54121;53.508;49.422;2023-03-01T14:52:41;1.90;37.60
67194;DHT22;54121;53.508;49.422;2023-03-01T14:55:20;4.40;39.30
67194;DHT22;54121;53.508;49.422;2023-03-01T14:57:50;1.30;38.50
67194;DHT22;54121;53.508;49.422;2023-03-01T15:00:18;1.00;39.20
67194;DHT22;54121;53.508;49.422;2023-03-01T15:02:47;0.90;39.40
67194;DHT22;54121;53.508;49.422;2023-03-01T15:05:16;0.70;39.70
67194;DHT22;54121;53.508;49.422;2023-03-01T15:07:45;0.60;40.10
67194;DHT22;54121;53.508;49.422;2023-03-01T15:10:24;0.50;40.60
67194;DHT22;54121;53.508;49.422;2023-03-01T15:12:51;0.40;41.30
67194;DHT22;54121;53.508;49.422;2023-03-01T15:15:21;0.10;41.90
67194;DHT22;54121;53.508;49.422;2023-03-01T15:18:21;0.10;42.50
67194;DHT22;54121;53.508;49.422;2023-03-01T15:20:49;-0.10;42.70
67194;DHT22;54121;53.508;49.422;2023-03-01T15:23:28;-0.20;43.10
67194;DHT22;54121;53.508;49.422;2023-03-01T15:25:55;-0.50;44.70
67194;DHT22;54121;53.508;49.422;2023-03-01T15:28:43;-0.90;46.50
67194;DHT22;54121;53.508;49.422;2023-03-01T15:31:22;-0.90;47.70
67194;DHT22;54121;53.508;49.422;2023-03-01T15:33:49;-1.00;48.10
67194;DHT22;54121;53.508;49.422;2023-03-01T15:39:02;-1.10;49.10
67194;DHT22;54121;53.508;49.422;2023-03-01T15:41:45;-1.30;49.20
67194;DHT22;54121;53.508;49.422;2023-03-01T15:44:18;-1.30;49.80
67194;DHT22;54121;53.508;49.422;2023-03-01T15:46:48;-1.40;50.10
67194;DHT22;54121;53.508;49.422;2023-03-01T15:49:42;-1.40;50.50
67194;DHT22;54121;53.508;49.422;2023-03-01T15:52:13;-1.40;51.30
67194;DHT22;54121;53.508;49.422;2023-03-01T15:54:43;-1.40;51.70
67194;DHT22;54121;53.508;49.422;2023-03-01T15:57:14;-1.50;53.40
67194;DHT22;54121;53.508;49.422;2023-03-01T15:59:41;-1.60;53.30
67194;DHT22;54121;53.508;49.422;2023-03-01T16:02:11;-1.60;54.10
67194;DHT22;54121;53.508;49.422;2023-03-01T16:04:39;-1.80;55.10
67194;DHT22;54121;53.508;49.422;2023-03-01T16:07:06;-1.80;55.60
67194;DHT22;54121;53.508;49.422;2023-03-01T16:09:33;-1.90;55.80
67194;DHT22;54121;53.508;49.422;2023-03-01T16:11:59;-1.90;55.80
67194;DHT22;54121;53.508;49.422;2023-03-01T16:14:28;-1.90;56.00
67194;DHT22;54121;53.508;49.422;2023-03-01T16:16:55;-1.80;56.10
67194;DHT22;54121;53.508;49.422;2023-03-01T16:19:22;-1.80;56.40
67194;DHT22;54121;53.508;49.422;2023-03-01T16:21:49;-1.80;56.30
67194;DHT22;54121;53.508;49.422;2023-03-01T16:24:16;-2.00;56.80
67194;DHT22;54121;53.508;49.422;2023-03-01T16:26:44;-1.90;56.80
67194;DHT22;54121;53.508;49.422;2023-03-01T16:29:11;-1.80;56.90
67194;DHT22;54121;53.508;49.422;2023-03-01T16:31:37;-1.80;56.60
67194;DHT22;54121;53.508;49.422;2023-03-01T16:34:04;-1.90;56.90
67194;DHT22;54121;53.508;49.422;2023-03-01T16:36:31;-1.90;56.90
67194;DHT22;54121;53.508;49.422;2023-03-01T16:38:59;-2.00;57.30
67194;DHT22;54121;53.508;49.422;2023-03-01T16:41:30;-2.00;57.40
67194;DHT22;54121;53.508;49.422;2023-03-01T16:43:57;-2.10;57.90
67194;DHT22;54121;53.508;49.422;2023-03-01T16:46:27;-2.10;57.60
67194;DHT22;54121;53.508;49.422;2023-03-01T16:48:55;-2.10;57.60
67194;DHT22;54121;53.508;49.422;2023-03-01T16:51:22;-2.00;57.20
67194;DHT22;54121;53.508;49.422;2023-03-01T16:53:50;-2.00;57.20
67194;DHT22;54121;53.508;49.422;2023-03-01T16:56:18;-2.10;56.80
67194;DHT22;54121;53.508;49.422;2023-03-01T16:58:47;-2.00;56.60
67194;DHT22;54121;53.508;49.422;2023-03-01T17:01:19;-2.10;56.60
67194;DHT22;54121;53.508;49.422;2023-03-01T17:03:47;-2.00;56.50
67194;DHT22;54121;53.508;49.422;2023-03-01T17:06:17;-2.10;56.20
67194;DHT22;54121;53.508;49.422;2023-03-01T17:08:46;-2.10;55.10
67194;DHT22;54121;53.508;49.422;2023-03-01T17:11:15;-2.20;55.30
67194;DHT22;54121;53.508;49.422;2023-03-01T17:13:43;-2.20;55.40
67194;DHT22;54121;53.508;49.422;2023-03-01T17:16:13;-2.20;54.90
67194;DHT22;54121;53.508;49.422;2023-03-01T17:18:40;-2.20;54.70
67194;DHT22;54121;53.508;49.422;2023-03-01T17:21:07;-2.10;55.50
67194;DHT22;54121;53.508;49.422;2023-03-01T17:23:36;-2.20;54.40
67194;DHT22;54121;53.508;49.422;2023-03-01T17:26:03;-2.20;54.30
67194;DHT22;54121;53.508;49.422;2023-03-01T17:28:32;-2.20;53.80
67194;DHT22;54121;53.508;49.422;2023-03-01T17:31:03;-2.10;54.40
67194;DHT22;54121;53.508;49.422;2023-03-01T17:33:30;-2.10;53.90
67194;DHT22;54121;53.508;49.422;2023-03-01T17:35:57;-2.00;53.80
67194;DHT22;54121;53.508;49.422;2023-03-01T17:38:25;-2.10;53.40
67194;DHT22;54121;53.508;49.422;2023-03-01T17:40:51;-2.20;53.90
67194;DHT22;54121;53.508;49.422;2023-03-01T17:43:19;-2.10;53.50
67194;DHT22;54121;53.508;49.422;2023-03-01T17:45:46;-2.10;53.70
67194;DHT22;54121;53.508;49.422;2023-03-01T17:48:17;-2.10;52.80
67194;DHT22;54121;53.508;49.422;2023-03-01T17:50:44;-2.00;53.40
67194;DHT22;54121;53.508;49.422;2023-03-01T17:53:11;-2.00;53.10
67194;DHT22;54121;53.508;49.422;2023-03-01T17:55:39;-2.00;53.20
67194;DHT22;54121;53.508;49.422;2023-03-01T17:58:09;-2.00;53.40
67194;DHT22;54121;53.508;49.422;2023-03-01T18:00:36;-2.00;54.10
67194;DHT22;54121;53.508;49.422;2023-03-01T18:03:03;-2.00;54.30
67194;DHT22;54121;53.508;49.422;2023-03-01T18:05:35;-2.00;54.50
67194;DHT22;54121;53.508;49.422;2023-03-01T18:08:03;-2.00;55.30
67194;DHT22;54121;53.508;49.422;2023-03-01T18:10:32;-2.00;55.50
67194;DHT22;54121;53.508;49.422;2023-03-01T18:13:03;-2.10;55.70
67194;DHT22;54121;53.508;49.422;2023-03-01T18:15:31;-2.00;55.70
67194;DHT22;54121;53.508;49.422;2023-03-01T18:17:57;-2.10;55.70
67194;DHT22;54121;53.508;49.422;2023-03-01T18:20:24;-2.10;56.10
67194;DHT22;54121;53.508;49.422;2023-03-01T18:22:52;-2.00;56.10
67194;DHT22;54121;53.508;49.422;2023-03-01T18:25:19;-1.90;55.60
67194;DHT22;54121;53.508;49.422;2023-03-01T18:27:47;-1.90;55.40
67194;DHT22;54121;53.508;49.422;2023-03-01T18:30:14;-1.80;54.30
67194;DHT22;54121;53.508;49.422;2023-03-01T18:32:40;-1.80;54.00
67194;DHT22;54121;53.508;49.422;2023-03-01T18:35:07;-1.80;53.70
67194;DHT22;54121;53.508;49.422;2023-03-01T18:37:34;-1.80;53.50
67194;DHT22;54121;53.508;49.422;2023-03-01T18:40:00;-1.90;53.40
67194;DHT22;54121;53.508;49.422;2023-03-01T18:42:27;-1.90;53.60
67194;DHT22;54121;53.508;49.422;2023-03-01T18:44:53;-1.80;53.30
67194;DHT22;54121;53.508;49.422;2023-03-01T18:47:20;-1.90;53.50
67194;DHT22;54121;53.508;49.422;2023-03-01T18:49:46;-2.00;53.70
67194;DHT22;54121;53.508;49.422;2023-03-01T18:52:13;-1.90;53.90
67194;DHT22;54121;53.508;49.422;2023-03-01T18:54:39;-1.80;53.90
67194;DHT22;54121;53.508;49.422;2023-03-01T18:57:06;-1.90;53.60
67194;DHT22;54121;53.508;49.422;2023-03-01T18:59:32;-1.90;53.90
67194;DHT22;54121;53.508;49.422;2023-03-01T19:02:01;-1.90;53.70
67194;DHT22;54121;53.508;49.422;2023-03-01T19:04:28;-1.80;53.80
67194;DHT22;54121;53.508;49.422;2023-03-01T19:06:55;-1.80;54.20
67194;DHT22;54121;53.508;49.422;2023-03-01T19:09:22;-1.90;54.80
67194;DHT22;54121;53.508;49.422;2023-03-01T19:11:48;-1.80;54.70
67194;DHT22;54121;53.508;49.422;2023-03-01T19:14:15;-1.90;55.20
67194;DHT22;54121;53.508;49.422;2023-03-01T19:16:41;-1.90;55.00
67194;DHT22;54121;53.508;49.422;2023-03-01T19:19:08;-1.80;54.40
67194;DHT22;54121;53.508;49.422;2023-03-01T19:21:35;-1.80;54.20
67194;DHT22;54121;53.508;49.422;2023-03-01T19:24:02;-1.80;53.70
67194;DHT22;54121;53.508;49.422;2023-03-01T19:26:30;-1.80;53.90
67194;DHT22;54121;53.508;49.422;2023-03-01T19:28:57;-1.90;53.80
67194;DHT22;54121;53.508;49.422;2023-03-01T19:31:25;-1.80;53.20
67194;DHT22;54121;53.508;49.422;2023-03-01T19:33:54;-1.90;53.20
67194;DHT22;54121;53.508;49.422;2023-03-01T19:36:23;-1.90;53.80
67194;DHT22;54121;53.508;49.422;2023-03-01T19:38:59;-2.00;53.80
67194;DHT22;54121;53.508;49.422;2023-03-01T19:41:26;-2.00;53.70
67194;DHT22;54121;53.508;49.422;2023-03-01T19:43:53;-2.00;53.40
67194;DHT22;54121;53.508;49.422;2023-03-01T19:46:20;-1.90;53.50
67194;DHT22;54121;53.508;49.422;2023-03-01T19:48:46;-1.90;53.10
67194;DHT22;54121;53.508;49.422;2023-03-01T19:51:13;-2.00;53.00
67194;DHT22;54121;53.508;49.422;2023-03-01T19:53:40;-2.00;53.30
67194;DHT22;54121;53.508;49.422;2023-03-01T19:56:07;-2.00;53.00
67194;DHT22;54121;53.508;49.422;2023-03-01T19:58:34;-2.00;53.10
67194;DHT22;54121;53.508;49.422;2023-03-01T20:01:01;-2.00;53.00
67194;DHT22;54121;53.508;49.422;2023-03-01T20:03:31;-2.10;53.20
67194;DHT22;54121;53.508;49.422;2023-03-01T20:05:59;-2.10;52.80
67194;DHT22;54121;53.508;49.422;2023-03-01T20:08:29;-2.20;52.60
67194;DHT22;54121;53.508;49.422;2023-03-01T20:11:05;-2.10;52.90
67194;DHT22;54121;53.508;49.422;2023-03-01T20:13:33;-2.00;52.70
67194;DHT22;54121;53.508;49.422;2023-03-01T20:16:00;-2.10;52.60
67194;DHT22;54121;53.508;49.422;2023-03-01T20:18:27;-2.00;52.40
67194;DHT22;54121;53.508;49.422;2023-03-01T20:20:54;-2.00;52.10
67194;DHT22;54121;53.508;49.422;2023-03-01T20:23:21;-2.00;52.00
67194;DHT22;54121;53.508;49.422;2023-03-01T20:25:48;-2.00;52.00
67194;DHT22;54121;53.508;49.422;2023-03-01T20:28:17;-2.00;51.60
67194;DHT22;54121;53.508;49.422;2023-03-01T20:30:44;-1.90;51.40
67194;DHT22;54121;53.508;49.422;2023-03-01T20:33:11;-1.80;51.60
67194;DHT22;54121;53.508;49.422;2023-03-01T20:35:41;-1.80;51.70
67194;DHT22;54121;53.508;49.422;2023-03-01T20:38:08;-1.80;52.00
67194;DHT22;54121;53.508;49.422;2023-03-01T20:40:36;-1.80;52.30
67194;DHT22;54121;53.508;49.422;2023-03-01T20:43:03;-1.80;51.80
67194;DHT22;54121;53.508;49.422;2023-03-01T20:45:30;-1.80;51.70
67194;DHT22;54121;53.508;49.422;2023-03-01T20:47:56;-1.80;51.40
67194;DHT22;54121;53.508;49.422;2023-03-01T20:50:23;-1.80;51.20
67194;DHT22;54121;53.508;49.422;2023-03-01T20:52:50;-1.70;51.70
67194;DHT22;54121;53.508;49.422;2023-03-01T20:55:17;-1.70;52.30
67194;DHT22;54121;53.508;49.422;2023-03-01T20:57:43;-1.80;52.30
67194;DHT22;54121;53.508;49.422;2023-03-01T21:00:12;-1.80;52.80
67194;DHT22;54121;53.508;49.422;2023-03-01T21:02:39;-1.80;52.50
67194;DHT22;54121;53.508;49.422;2023-03-01T21:05:06;-1.80;52.40
67194;DHT22;54121;53.508;49.422;2023-03-01T21:07:33;-1.80;52.20
67194;DHT22;54121;53.508;49.422;2023-03-01T21:09:59;-1.80;51.50
67194;DHT22;54121;53.508;49.422;2023-03-01T21:12:26;-1.80;51.50
67194;DHT22;54121;53.508;49.422;2023-03-01T21:14:52;-1.90;51.40
67194;DHT22;54121;53.508;49.422;2023-03-01T21:17:19;-1.90;51.50
67194;DHT22;54121;53.508;49.422;2023-03-01T21:19:46;-1.80;51.50
67194;DHT22;54121;53.508;49.422;2023-03-01T21:22:13;-1.80;51.10
67194;DHT22;54121;53.508;49.422;2023-03-01T21:24:41;-1.70;50.90
67194;DHT22;54121;53.508;49.422;2023-03-01T21:27:08;-1.80;51.20
67194;DHT22;54121;53.508;49.422;2023-03-01T21:29:43;-1.80;51.20
67194;DHT22;54121;53.508;49.422;2023-03-01T21:32:12;-1.80;51.20
67194;DHT22;54121;53.508;49.422;2023-03-01T21:34:39;-1.90;51.40
67194;DHT22;54121;53.508;49.422;2023-03-01T21:37:07;-1.90;51.70
67194;DHT22;54121;53.508;49.422;2023-03-01T21:39:35;-2.00;51.80
67194;DHT22;54121;53.508;49.422;2023-03-01T21:42:04;-1.90;52.00
67194;DHT22;54121;53.508;49.422;2023-03-01T21:44:31;-2.00;51.80
67194;DHT22;54121;53.508;49.422;2023-03-01T21:46:58;-2.00;52.10
67194;DHT22;54121;53.508;49.422;2023-03-01T21:49:25;-2.10;52.00
67194;DHT22;54121;53.508;49.422;2023-03-01T21:51:52;-2.10;52.20
67194;DHT22;54121;53.508;49.422;2023-03-01T21:54:19;-2.20;52.50
67194;DHT22;54121;53.508;49.422;2023-03-01T21:56:47;-2.20;52.70